Etusivu
METAR-TAF:

METAR-TAF

Lentoasemat :

Dayton, Ohio, Yhdysvallat

Leveyspiiri: 39-35-20N, Pituuspiiri: 084-13-29W, korkeus merenpinnasta: 292 m

Tämänhetkinen sää

Tämä raportti tehtiin 24 minuuttia sitten, kello 04.53 UTC
Tuuli 8 kn pohjoisesta/koillisesta
Lämpötila 11°C
Kosteus 82%
Ilmanpaine 1017 hPa
Näkyvyys: 14.5 km
Pilvistä 7000 ft:n korkeudessa

METAR: KMGY 050453Z AUTO 02008KT 9SM OVC070 11/08 A3003 RMK AO2 SLP168 T01110078 402170061

Aika: 01:17 (05:17 UTC)


TAF: puuttuu

Säähavainnot ja -ennusteet yli 4000 lentoasemalta (METAR- ja TAF-raportit).

Käytössä olevat sääasemat on merkitty karttaan keltaisilla ja punaisilla pisteillä.

Aseta hiiri pisteen päälle nähdäksesi sääaseman nimen.

Klikkaa sitten nähdäksesi säähavainnot ja -ennusteet.

Kartan vaihtaminen: klikkaa mustalla rastilla varustettuja vihreitä pisteitä, niin voit zoomata sisään; viivalla varustettua vihreää pistettä, niin voit zoomata ulos tai vihreitä nuolia, niin pääset viereisille kartoille.


METAR-TAF: